Time;durP1;ratioP1;P1;durP2;ratioP2;P2;SDS_P1;SDS_P2;PMS_P1;PMS_P2;Temp;Humidity;BMP_temperature;BMP_pressure;BME280_temperature;BME280_humidity;BME280_pressure;Samples;Min_cycle;Max_cycle;Signal;HPM_P1;HPM_P2
2022/10/29 00:01:42;;;;;;;5.20;0.95;;;13.90;99.90;;;;;;5038598;28;20045;-72
2022/10/29 00:04:07;;;;;;;8.02;1.13;;;13.80;99.90;;;;;;5036967;28;20040;-72
2022/10/29 00:06:33;;;;;;;1.55;0.52;;;13.90;99.90;;;;;;5023172;28;20090;-72
2022/10/29 00:08:58;;;;;;;2.38;0.98;;;13.80;99.90;;;;;;5021329;28;20095;-72
2022/10/29 00:11:24;;;;;;;2.55;0.70;;;13.80;99.90;;;;;;5038888;28;20406;-72
2022/10/29 00:13:55;;;;;;;0.90;0.43;;;13.80;99.90;;;;;;5038280;28;20033;-72
2022/10/29 00:16:23;;;;;;;3.95;0.60;;;13.80;99.90;;;;;;5039431;28;20068;-73
2022/10/29 00:18:49;;;;;;;6.22;0.95;;;13.80;99.90;;;;;;5053437;28;20041;-73
2022/10/29 00:21:17;;;;;;;0.90;0.50;;;13.80;99.90;;;;;;5024852;28;20087;-73
2022/10/29 00:23:44;;;;;;;5.15;0.70;;;13.80;99.90;;;;;;5036908;28;20044;-73
2022/10/29 00:26:10;;;;;;;6.60;1.13;;;13.80;99.90;;;;;;5036400;28;20546;-73
2022/10/29 00:28:36;;;;;;;1.35;0.55;;;13.80;99.90;;;;;;5038659;28;20043;-72
2022/10/29 00:31:07;;;;;;;12.15;0.98;;;13.80;99.90;;;;;;5036978;28;20033;-72
2022/10/29 00:33:33;;;;;;;4.10;0.70;;;13.70;99.90;;;;;;5021270;28;20487;-72
2022/10/29 00:36:09;;;;;;;1.30;0.70;;;13.70;99.90;;;;;;5039520;28;20044;-72
2022/10/29 00:38:35;;;;;;;4.32;0.85;;;13.70;99.90;;;;;;5053230;28;20045;-73
2022/10/29 00:41:02;;;;;;;2.13;0.55;;;13.70;99.90;;;;;;5037588;28;20040;-73
2022/10/29 00:43:28;;;;;;;2.45;0.60;;;13.70;99.90;;;;;;5035610;28;20041;-73
2022/10/29 00:45:57;;;;;;;2.13;0.50;;;13.60;99.90;;;;;;5021830;28;20499;-73
2022/10/29 00:48:26;;;;;;;3.80;0.70;;;13.60;99.90;;;;;;5037890;28;20041;-73
2022/10/29 00:50:53;;;;;;;2.88;0.70;;;13.60;99.90;;;;;;5038130;28;20522;-73
2022/10/29 00:53:22;;;;;;;2.42;0.82;;;13.60;99.90;;;;;;5023374;28;20062;-73
2022/10/29 00:55:48;;;;;;;1.27;0.60;;;13.60;99.90;;;;;;5026449;28;20104;-72
2022/10/29 00:58:14;;;;;;;2.47;1.10;;;13.60;99.90;;;;;;5027146;28;20037;-72
2022/10/29 01:00:40;;;;;;;4.40;0.90;;;13.50;99.90;;;;;;5041795;28;20044;-72
2022/10/29 01:03:06;;;;;;;3.15;0.68;;;13.50;99.90;;;;;;5025243;28;20090;-73
2022/10/29 01:05:33;;;;;;;3.55;0.60;;;13.50;99.90;;;;;;5023561;28;20533;-73
2022/10/29 01:08:00;;;;;;;3.95;1.00;;;13.50;99.90;;;;;;5024030;28;20483;-73
2022/10/29 01:10:46;;;;;;;2.17;0.55;;;13.40;99.90;;;;;;5041018;28;20087;-73
2022/10/29 01:13:18;;;;;;;2.80;0.70;;;13.40;99.90;;;;;;5023457;28;20330;-73
2022/10/29 01:15:57;;;;;;;5.40;0.93;;;13.40;99.90;;;;;;5041586;28;20056;-73
2022/10/29 01:18:57;;;;;;;2.42;0.77;;;13.40;99.90;;;;;;5041683;28;20143;-73
2022/10/29 01:21:37;;;;;;;6.60;0.88;;;13.30;99.90;;;;;;5040821;28;20486;-73
2022/10/29 01:24:17;;;;;;;2.67;0.73;;;13.30;99.90;;;;;;5023012;28;20402;-73
2022/10/29 01:27:02;;;;;;;1.83;0.80;;;13.30;99.90;;;;;;5039227;28;20047;-73
2022/10/29 01:29:53;;;;;;;1.17;0.60;;;13.20;99.90;;;;;;5040332;28;20041;-73
2022/10/29 01:33:04;;;;;;;2.00;0.85;;;13.20;99.90;;;;;;5038702;28;20061;-73
2022/10/29 01:36:12;;;;;;;2.50;0.68;;;13.20;99.90;;;;;;5032439;28;20052;-73
2022/10/29 01:38:54;;;;;;;2.53;0.75;;;13.10;99.90;;;;;;5039588;28;20041;-73
2022/10/29 01:41:36;;;;;;;3.25;0.90;;;13.10;99.90;;;;;;5032135;28;20090;-73
2022/10/29 01:44:19;;;;;;;3.47;0.82;;;13.00;99.90;;;;;;5038830;28;20033;-73
2022/10/29 01:46:51;;;;;;;1.88;1.15;;;13.00;99.90;;;;;;5023033;28;20064;-73
2022/10/29 01:49:23;;;;;;;2.50;0.73;;;12.90;99.90;;;;;;5042991;28;20068;-73
2022/10/29 01:51:49;;;;;;;5.25;0.55;;;12.90;99.90;;;;;;5038360;28;20041;-72
2022/10/29 01:54:15;;;;;;;6.20;1.15;;;12.90;99.90;;;;;;5041228;28;20146;-72
2022/10/29 01:56:40;;;;;;;2.00;0.90;;;12.90;99.90;;;;;;5039922;28;20033;-72
2022/10/29 01:59:11;;;;;;;1.77;0.90;;;12.90;99.90;;;;;;5039674;28;20052;-72
2022/10/29 02:02:03;;;;;;;3.53;0.95;;;12.90;99.90;;;;;;5039386;28;20037;-72
2022/10/29 02:04:50;;;;;;;4.57;1.20;;;12.90;99.90;;;;;;5037990;28;20151;-72
2022/10/29 02:07:33;;;;;;;4.82;1.10;;;13.00;99.90;;;;;;5039472;28;20614;-72
2022/10/29 02:10:17;;;;;;;5.60;1.15;;;12.90;99.90;;;;;;5059589;28;20055;-72
2022/10/29 02:12:51;;;;;;;6.63;1.10;;;13.00;99.90;;;;;;5043946;28;20351;-73
2022/10/29 02:15:30;;;;;;;2.35;1.17;;;13.00;99.90;;;;;;5038879;28;20063;-73
2022/10/29 02:18:01;;;;;;;2.67;1.15;;;13.00;99.90;;;;;;5024201;28;20045;-73
2022/10/29 02:20:27;;;;;;;2.53;1.10;;;13.00;99.90;;;;;;5039043;28;20041;-73
2022/10/29 02:22:52;;;;;;;3.67;1.33;;;13.00;99.90;;;;;;5038395;28;20040;-72
2022/10/29 02:25:18;;;;;;;3.30;1.25;;;13.00;99.90;;;;;;5040629;28;20036;-73
2022/10/29 02:27:44;;;;;;;1.63;0.95;;;12.90;99.90;;;;;;5039318;28;20067;-72
2022/10/29 02:30:09;;;;;;;2.47;1.50;;;13.00;99.90;;;;;;5040665;28;20517;-72
2022/10/29 02:32:35;;;;;;;3.00;1.42;;;12.90;99.90;;;;;;5038900;28;20041;-72
2022/10/29 02:35:01;;;;;;;2.53;1.33;;;12.90;99.90;;;;;;5040646;28;20086;-72
2022/10/29 02:37:26;;;;;;;6.18;1.40;;;12.90;99.90;;;;;;5038965;28;20052;-73
2022/10/29 02:39:52;;;;;;;4.07;1.20;;;12.90;99.90;;;;;;5039998;28;20066;-73
2022/10/29 02:42:17;;;;;;;3.05;1.83;;;12.90;99.90;;;;;;5037970;28;20041;-73
2022/10/29 02:44:43;;;;;;;4.00;1.02;;;12.90;99.90;;;;;;5037510;28;21104;-72
2022/10/29 02:47:09;;;;;;;1.95;1.13;;;12.80;99.90;;;;;;5040736;28;20037;-73
2022/10/29 02:49:34;;;;;;;3.28;1.27;;;12.80;99.90;;;;;;5040692;28;20037;-73
2022/10/29 02:52:00;;;;;;;1.92;1.05;;;12.90;99.90;;;;;;5039278;28;20029;-73
2022/10/29 02:54:25;;;;;;;1.92;1.15;;;12.80;99.90;;;;;;5038853;28;20521;-72
2022/10/29 02:56:51;;;;;;;3.70;1.48;;;12.80;99.90;;;;;;5040138;28;20072;-73
2022/10/29 02:59:16;;;;;;;3.65;1.40;;;12.80;99.90;;;;;;5039095;28;20040;-73
2022/10/29 03:01:42;;;;;;;7.00;1.88;;;12.80;99.90;;;;;;5040505;28;20532;-73
2022/10/29 03:04:09;;;;;;;3.55;1.58;;;12.80;99.90;;;;;;5039144;28;20417;-72
2022/10/29 03:06:36;;;;;;;8.45;1.45;;;12.80;99.90;;;;;;5040128;28;20043;-72
2022/10/29 03:09:02;;;;;;;6.10;1.80;;;12.80;99.90;;;;;;5036874;28;20040;-72
2022/10/29 03:11:27;;;;;;;1.92;0.77;;;12.80;99.90;;;;;;5023813;28;20032;-72
2022/10/29 03:13:53;;;;;;;2.35;0.82;;;12.80;99.90;;;;;;5038647;28;20043;-72
2022/10/29 03:16:18;;;;;;;2.60;1.30;;;12.70;99.90;;;;;;5038811;28;20065;-73
2022/10/29 03:18:44;;;;;;;3.60;1.13;;;12.70;99.90;;;;;;5041357;28;20135;-73
2022/10/29 03:21:10;;;;;;;5.68;1.10;;;12.60;99.90;;;;;;5036891;28;20045;-73
2022/10/29 03:23:35;;;;;;;3.08;1.60;;;12.60;99.90;;;;;;5036361;28;20518;-73
2022/10/29 03:26:01;;;;;;;3.45;1.40;;;12.60;99.90;;;;;;5041421;28;20489;-73
2022/10/29 03:28:27;;;;;;;2.05;1.42;;;12.60;99.90;;;;;;5040218;28;20045;-73
2022/10/29 03:30:53;;;;;;;4.30;1.80;;;12.60;99.90;;;;;;5038631;28;20036;-73
2022/10/29 03:33:18;;;;;;;5.70;1.67;;;12.60;99.90;;;;;;5039449;28;20478;-73
2022/10/29 03:35:44;;;;;;;3.35;1.58;;;12.60;99.90;;;;;;5040372;28;20036;-73
2022/10/29 03:38:09;;;;;;;6.95;2.00;;;12.70;99.90;;;;;;5037902;28;20033;-72
2022/10/29 03:40:35;;;;;;;4.68;1.95;;;12.70;99.90;;;;;;5038179;28;20044;-73
2022/10/29 03:43:01;;;;;;;4.07;2.13;;;12.70;99.90;;;;;;5038769;28;20052;-73
2022/10/29 03:45:26;;;;;;;4.68;1.77;;;12.70;99.90;;;;;;5040078;28;20041;-72
2022/10/29 03:47:52;;;;;;;3.03;1.58;;;12.80;99.90;;;;;;5039235;28;20045;-73
2022/10/29 03:50:18;;;;;;;7.07;1.63;;;12.80;99.90;;;;;;5040064;28;20047;-72
2022/10/29 03:52:43;;;;;;;3.05;1.70;;;12.80;99.90;;;;;;5036981;28;20045;-72
2022/10/29 03:55:09;;;;;;;9.68;2.10;;;12.80;99.90;;;;;;5021867;28;20447;-72
2022/10/29 03:57:34;;;;;;;3.80;1.83;;;12.80;99.90;;;;;;5040239;28;20434;-73
2022/10/29 04:00:03;;;;;;;4.50;2.17;;;12.90;99.90;;;;;;5023075;28;20490;-73
2022/10/29 04:02:29;;;;;;;5.40;1.90;;;12.90;99.90;;;;;;5054278;28;20033;-73
2022/10/29 04:04:55;;;;;;;6.90;1.73;;;13.00;99.90;;;;;;5039794;28;20082;-73
2022/10/29 04:07:20;;;;;;;5.18;1.95;;;12.90;99.90;;;;;;5022555;28;20422;-73
2022/10/29 04:09:46;;;;;;;4.75;2.15;;;12.90;99.90;;;;;;5039806;28;20059;-73
2022/10/29 04:12:11;;;;;;;4.25;1.73;;;13.00;99.90;;;;;;5037107;28;20045;-73
2022/10/29 04:14:37;;;;;;;2.58;1.60;;;13.00;99.90;;;;;;5039823;28;20049;-72
2022/10/29 04:17:02;;;;;;;3.40;1.60;;;13.00;99.90;;;;;;5039011;28;20049;-72
2022/10/29 04:19:28;;;;;;;12.45;2.47;;;13.00;99.90;;;;;;5039094;28;20128;-72
2022/10/29 04:21:53;;;;;;;5.10;2.25;;;13.00;99.90;;;;;;5051857;28;20029;-73
2022/10/29 04:24:19;;;;;;;4.35;2.20;;;13.00;99.90;;;;;;5022666;28;20037;-73
2022/10/29 04:26:45;;;;;;;6.93;2.47;;;13.00;99.90;;;;;;5040483;28;20063;-73
2022/10/29 04:29:10;;;;;;;4.80;1.90;;;13.00;99.90;;;;;;5042484;28;20629;-73
2022/10/29 04:31:36;;;;;;;3.45;1.73;;;13.10;99.90;;;;;;5039852;28;20531;-73
2022/10/29 04:34:03;;;;;;;7.93;2.35;;;13.10;99.90;;;;;;5042746;28;20033;-73
2022/10/29 04:36:28;;;;;;;5.85;2.22;;;13.10;99.90;;;;;;5043109;28;20041;-72
2022/10/29 04:38:54;;;;;;;6.03;1.98;;;13.10;99.90;;;;;;5025933;28;20048;-72
2022/10/29 04:41:19;;;;;;;5.35;2.03;;;13.20;99.90;;;;;;5040071;28;20041;-72
2022/10/29 04:43:45;;;;;;;8.73;2.40;;;13.10;99.90;;;;;;5025979;28;20051;-72
2022/10/29 04:46:11;;;;;;;6.13;2.42;;;13.20;99.90;;;;;;5041968;28;20415;-72
2022/10/29 04:48:36;;;;;;;9.02;2.08;;;13.20;99.90;;;;;;5043305;28;20103;-72
2022/10/29 04:51:02;;;;;;;6.45;2.45;;;13.20;99.90;;;;;;5041880;28;20540;-73
2022/10/29 04:53:28;;;;;;;4.88;1.73;;;13.20;99.90;;;;;;5042158;28;20041;-72
2022/10/29 04:56:02;;;;;;;5.65;2.15;;;13.20;99.90;;;;;;5039352;28;20048;-72
2022/10/29 04:58:28;;;;;;;5.20;2.10;;;13.20;99.90;;;;;;5041170;28;20041;-73
2022/10/29 05:00:59;;;;;;;5.35;2.08;;;13.20;99.90;;;;;;5024660;28;20083;-72
2022/10/29 05:03:24;;;;;;;4.22;1.92;;;13.20;99.90;;;;;;5043147;28;20037;-75
2022/10/29 05:05:50;;;;;;;8.60;1.83;;;13.20;99.90;;;;;;5026598;28;20406;-75
2022/10/29 05:08:16;;;;;;;3.80;1.80;;;13.20;99.90;;;;;;5040592;28;20060;-73
2022/10/29 05:10:42;;;;;;;5.13;2.80;;;13.20;99.90;;;;;;5039906;28;20130;-72
2022/10/29 05:13:10;;;;;;;8.48;2.55;;;13.30;99.90;;;;;;5058303;28;20056;-73
2022/10/29 05:15:37;;;;;;;4.65;2.00;;;13.20;99.90;;;;;;5026564;28;20040;-73
2022/10/29 05:18:03;;;;;;;4.35;2.00;;;13.20;99.90;;;;;;5040763;28;20033;-73
2022/10/29 05:20:29;;;;;;;5.25;2.60;;;13.30;99.90;;;;;;5038392;28;20044;-73
2022/10/29 05:22:59;;;;;;;6.13;1.92;;;13.20;99.90;;;;;;5040306;28;20045;-73
2022/10/29 05:25:25;;;;;;;9.50;2.35;;;13.30;99.90;;;;;;5026415;28;20033;-73
2022/10/29 05:28:11;;;;;;;6.63;2.55;;;13.30;99.90;;;;;;5025511;28;20049;-72
2022/10/29 05:30:37;;;;;;;7.53;3.00;;;13.30;99.90;;;;;;5038926;28;20179;-72
2022/10/29 05:33:07;;;;;;;6.63;2.35;;;13.30;99.90;;;;;;5043447;28;20043;-73
2022/10/29 05:35:34;;;;;;;6.43;2.47;;;13.30;99.90;;;;;;5042732;28;20686;-73
2022/10/29 05:37:59;;;;;;;10.90;4.07;;;13.20;99.90;;;;;;5038274;28;20071;-72
2022/10/29 05:40:25;;;;;;;8.40;2.72;;;13.30;99.90;;;;;;5024612;28;20033;-72
2022/10/29 05:42:51;;;;;;;8.40;2.67;;;13.30;99.90;;;;;;5040169;28;21065;-72
2022/10/29 05:45:17;;;;;;;5.50;2.50;;;13.30;99.90;;;;;;5041634;28;20037;-72
2022/10/29 05:47:42;;;;;;;7.80;2.85;;;13.30;99.90;;;;;;5040647;28;20037;-72
2022/10/29 05:50:09;;;;;;;6.18;2.45;;;13.20;99.90;;;;;;5042421;28;20046;-72
2022/10/29 05:52:34;;;;;;;5.10;2.38;;;13.20;99.90;;;;;;5037848;28;20048;-73
2022/10/29 05:55:00;;;;;;;9.90;3.17;;;13.30;99.90;;;;;;5021749;28;20071;-73
2022/10/29 05:57:27;;;;;;;7.15;2.20;;;13.20;99.90;;;;;;5042315;28;20040;-72
2022/10/29 05:59:53;;;;;;;7.60;2.92;;;13.20;99.90;;;;;;5041463;28;20471;-72
2022/10/29 06:02:18;;;;;;;6.30;2.85;;;13.20;99.90;;;;;;5023011;28;20052;-72
2022/10/29 06:04:44;;;;;;;7.63;2.97;;;13.20;99.90;;;;;;5021950;28;20119;-73
2022/10/29 06:07:10;;;;;;;8.20;2.30;;;13.20;99.90;;;;;;5041535;28;20044;-73
2022/10/29 06:09:35;;;;;;;11.48;2.65;;;13.20;99.90;;;;;;5042828;28;20064;-72
2022/10/29 06:12:01;;;;;;;5.63;2.25;;;13.20;99.90;;;;;;5040300;28;20087;-72
2022/10/29 06:14:27;;;;;;;6.82;3.08;;;13.20;99.90;;;;;;5038665;28;20084;-72
2022/10/29 06:16:52;;;;;;;6.53;3.13;;;13.20;99.90;;;;;;5039401;28;20390;-72
2022/10/29 06:19:18;;;;;;;6.28;2.67;;;13.20;99.90;;;;;;5037519;28;20044;-72
2022/10/29 06:21:43;;;;;;;8.25;3.05;;;13.20;99.90;;;;;;5041578;28;20453;-72
2022/10/29 06:24:09;;;;;;;7.55;3.28;;;13.20;99.90;;;;;;5038631;28;20049;-72
2022/10/29 06:26:36;;;;;;;10.40;3.15;;;13.20;99.90;;;;;;5039876;28;20338;-73
2022/10/29 06:29:02;;;;;;;9.95;3.15;;;13.20;99.90;;;;;;5038887;28;20037;-73
2022/10/29 06:31:28;;;;;;;6.72;2.85;;;13.20;99.90;;;;;;5040391;28;20774;-72
2022/10/29 06:33:54;;;;;;;10.63;3.38;;;13.20;99.90;;;;;;5023387;28;20076;-72
2022/10/29 06:36:20;;;;;;;6.28;2.65;;;13.10;99.90;;;;;;5042569;28;20119;-72
2022/10/29 06:38:46;;;;;;;7.25;3.03;;;13.10;99.90;;;;;;5042963;28;20128;-75
2022/10/29 06:41:11;;;;;;;10.30;3.30;;;13.10;99.90;;;;;;5027847;28;20395;-75
2022/10/29 06:43:37;;;;;;;9.60;3.38;;;13.20;99.90;;;;;;5040366;28;20048;-75
2022/10/29 06:46:03;;;;;;;5.47;2.30;;;13.10;99.90;;;;;;5039588;28;20039;-75
2022/10/29 06:48:28;;;;;;;6.53;2.90;;;13.10;99.90;;;;;;5020529;28;20041;-75
2022/10/29 06:50:54;;;;;;;6.40;3.10;;;13.10;99.90;;;;;;5039234;28;20045;-77
2022/10/29 06:53:20;;;;;;;7.97;3.33;;;13.10;99.90;;;;;;5021049;28;20037;-75
2022/10/29 06:55:45;;;;;;;5.57;2.75;;;13.10;99.90;;;;;;5043209;28;20037;-74
2022/10/29 06:58:13;;;;;;;11.02;4.22;;;13.10;99.90;;;;;;5038304;28;20127;-75
2022/10/29 07:00:39;;;;;;;7.35;2.72;;;13.20;99.90;;;;;;5044389;28;20048;-75
2022/10/29 07:03:06;;;;;;;7.40;2.85;;;13.10;99.90;;;;;;5035013;28;20063;-74
2022/10/29 07:05:32;;;;;;;5.80;3.25;;;13.10;99.90;;;;;;5053588;28;20037;-75
2022/10/29 07:07:59;;;;;;;7.53;3.40;;;13.10;99.90;;;;;;5036447;28;20051;-75
2022/10/29 07:10:27;;;;;;;5.55;3.10;;;13.10;99.90;;;;;;5035776;28;21701;-75
2022/10/29 07:12:53;;;;;;;6.45;3.13;;;13.10;99.90;;;;;;5016621;28;20037;-75
2022/10/29 07:15:19;;;;;;;7.75;3.10;;;13.10;99.90;;;;;;5033492;28;20075;-75
2022/10/29 07:17:54;;;;;;;7.10;3.15;;;13.10;99.90;;;;;;5036455;28;20049;-72
2022/10/29 07:20:21;;;;;;;8.02;3.22;;;13.20;99.90;;;;;;5036475;28;20532;-72
2022/10/29 07:22:47;;;;;;;6.68;3.05;;;13.20;99.90;;;;;;5020967;28;20037;-72
2022/10/29 07:25:12;;;;;;;8.68;3.72;;;13.20;99.90;;;;;;5037712;28;20103;-72
2022/10/29 07:27:38;;;;;;;4.60;2.53;;;13.20;99.90;;;;;;5054905;28;20044;-72
2022/10/29 07:30:04;;;;;;;6.38;2.88;;;13.20;99.90;;;;;;5038323;28;20132;-72
2022/10/29 07:32:30;;;;;;;7.45;2.88;;;13.20;99.90;;;;;;5035698;28;20372;-73
2022/10/29 07:34:55;;;;;;;5.22;2.80;;;13.20;99.90;;;;;;5030470;28;20122;-73
2022/10/29 07:37:21;;;;;;;7.30;3.22;;;13.20;99.90;;;;;;5032913;28;20044;-72
2022/10/29 07:39:46;;;;;;;6.90;2.95;;;13.20;99.90;;;;;;5019928;28;20923;-72
2022/10/29 07:42:12;;;;;;;6.88;3.75;;;13.20;99.90;;;;;;5038552;28;20101;-72
2022/10/29 07:44:37;;;;;;;8.48;3.10;;;13.20;99.90;;;;;;5037807;28;20068;-73
2022/10/29 07:47:03;;;;;;;4.70;2.65;;;13.20;99.90;;;;;;5037550;28;20033;-72
2022/10/29 07:49:29;;;;;;;6.55;2.92;;;13.30;99.90;;;;;;5036575;28;20048;-72
2022/10/29 07:51:54;;;;;;;7.95;3.15;;;13.30;99.90;;;;;;5037924;28;20045;-72
2022/10/29 07:54:20;;;;;;;4.80;2.72;;;13.30;99.90;;;;;;5034794;28;20041;-72
2022/10/29 07:56:45;;;;;;;5.63;2.58;;;13.30;99.90;;;;;;5031900;28;20047;-72
2022/10/29 07:59:13;;;;;;;5.85;2.85;;;13.30;99.90;;;;;;5034196;28;20051;-72
2022/10/29 08:01:39;;;;;;;6.32;2.70;;;13.30;99.90;;;;;;5032623;28;20120;-72
2022/10/29 08:04:04;;;;;;;7.40;2.97;;;13.40;99.90;;;;;;5018041;28;20155;-72
2022/10/29 08:06:30;;;;;;;5.10;2.70;;;13.30;99.90;;;;;;5035946;28;20123;-75
2022/10/29 08:08:56;;;;;;;7.00;3.28;;;13.40;99.90;;;;;;5038030;28;20049;-75
2022/10/29 08:11:22;;;;;;;10.18;2.80;;;13.40;99.90;;;;;;5034672;28;20055;-75
2022/10/29 08:13:48;;;;;;;7.50;2.95;;;13.40;99.90;;;;;;5021543;28;20033;-75
2022/10/29 08:16:14;;;;;;;7.68;3.22;;;13.40;99.90;;;;;;5034882;28;20067;-75
2022/10/29 08:18:39;;;;;;;6.82;2.80;;;13.50;99.90;;;;;;5035234;28;20490;-75
2022/10/29 08:21:05;;;;;;;6.22;3.05;;;13.50;99.90;;;;;;5022718;28;20045;-75
2022/10/29 08:23:31;;;;;;;5.88;2.83;;;13.50;99.90;;;;;;5036028;28;20033;-75
2022/10/29 08:25:57;;;;;;;5.03;2.28;;;13.50;99.90;;;;;;5033828;28;20121;-75
2022/10/29 08:28:23;;;;;;;7.78;3.00;;;13.50;99.90;;;;;;5036416;28;20048;-75
2022/10/29 08:30:49;;;;;;;5.72;2.67;;;13.60;99.90;;;;;;5030863;28;20045;-75
2022/10/29 08:33:15;;;;;;;7.28;3.30;;;13.60;99.90;;;;;;5035094;28;20178;-74
2022/10/29 08:35:40;;;;;;;6.05;2.78;;;13.60;99.90;;;;;;5016747;28;20033;-74
2022/10/29 08:38:06;;;;;;;5.13;2.80;;;13.70;99.90;;;;;;5010191;28;20386;-74
2022/10/29 08:40:50;;;;;;;6.85;3.15;;;13.70;99.90;;;;;;5033972;28;20056;-74
2022/10/29 08:43:28;;;;;;;6.03;2.65;;;13.70;99.90;;;;;;5032805;28;20550;-74
2022/10/29 08:45:54;;;;;;;4.03;2.13;;;13.70;99.90;;;;;;5030967;28;20041;-74
2022/10/29 08:48:45;;;;;;;7.43;2.67;;;13.80;99.90;;;;;;5029320;28;20122;-74
2022/10/29 08:51:24;;;;;;;6.80;2.97;;;13.80;99.90;;;;;;5036447;28;20045;-74
2022/10/29 08:53:53;;;;;;;8.23;2.97;;;13.90;99.90;;;;;;5032266;28;20091;-75
2022/10/29 08:56:28;;;;;;;9.55;2.95;;;13.90;99.90;;;;;;5036971;28;20070;-75
2022/10/29 08:59:00;;;;;;;6.75;2.97;;;14.00;99.90;;;;;;5024811;28;20064;-74
2022/10/29 09:01:26;;;;;;;6.10;2.67;;;14.00;99.90;;;;;;5034779;28;20033;-74
2022/10/29 09:03:53;;;;;;;5.60;2.30;;;14.10;99.90;;;;;;5034043;28;20043;-74
2022/10/29 09:06:23;;;;;;;7.88;2.30;;;14.10;99.90;;;;;;5038945;28;20053;-74
2022/10/29 09:09:11;;;;;;;6.78;2.78;;;14.10;99.90;;;;;;5035655;28;20037;-75
2022/10/29 09:12:00;;;;;;;4.72;2.40;;;14.20;99.90;;;;;;5031348;28;20067;-75
2022/10/29 09:14:42;;;;;;;5.60;2.55;;;14.20;99.90;;;;;;5028713;28;20564;-75
2022/10/29 09:17:17;;;;;;;5.50;2.72;;;14.30;99.90;;;;;;5061490;28;20149;-74
2022/10/29 09:19:52;;;;;;;7.60;3.60;;;14.30;99.90;;;;;;5012079;28;20045;-74
2022/10/29 09:22:28;;;;;;;8.43;2.72;;;14.30;99.90;;;;;;5019849;28;20040;-74
2022/10/29 09:25:10;;;;;;;5.55;3.15;;;14.30;99.90;;;;;;5019143;28;20034;-75
2022/10/29 09:28:05;;;;;;;4.82;2.85;;;14.40;99.90;;;;;;5033536;28;20095;-75
2022/10/29 09:30:36;;;;;;;6.95;2.42;;;14.40;99.90;;;;;;5036549;28;20056;-75
2022/10/29 09:33:13;;;;;;;5.28;3.03;;;14.40;99.90;;;;;;5031085;28;20049;-75
2022/10/29 09:35:53;;;;;;;14.20;3.20;;;14.40;99.90;;;;;;5037188;28;20037;-75
2022/10/29 09:38:28;;;;;;;7.47;2.70;;;14.40;99.90;;;;;;5035362;28;20041;-75
2022/10/29 09:40:56;;;;;;;9.85;2.90;;;14.40;99.90;;;;;;5035695;28;20410;-75
2022/10/29 09:43:42;;;;;;;5.13;2.90;;;14.50;99.90;;;;;;5030996;28;20479;-75
2022/10/29 09:46:12;;;;;;;;;;;14.50;99.90;;;;;;5027477;28;20056;-74
2022/10/29 09:48:50;;;;;;;8.15;3.13;;;14.60;99.90;;;;;;5031059;28;19921;-74
2022/10/29 09:51:47;;;;;;;6.50;2.85;;;14.60;99.90;;;;;;5031799;28;20049;-75
2022/10/29 09:54:13;;;;;;;5.05;2.35;;;14.60;99.90;;;;;;5015992;28;20060;-75
2022/10/29 09:56:41;;;;;;;5.78;2.63;;;14.70;99.90;;;;;;5030112;28;20296;-75
2022/10/29 09:59:16;;;;;;;7.45;3.22;;;14.70;99.90;;;;;;5027843;28;20037;-75
2022/10/29 10:01:41;;;;;;;10.90;2.97;;;14.70;99.90;;;;;;5029141;28;20044;-75
2022/10/29 10:04:18;;;;;;;5.75;2.92;;;14.80;99.90;;;;;;5016351;28;20441;-74
2022/10/29 10:07:06;;;;;;;8.25;3.00;;;14.80;99.90;;;;;;5018767;28;20047;-75
2022/10/29 10:09:56;;;;;;;5.85;2.90;;;14.90;99.90;;;;;;5033424;28;20037;-75
2022/10/29 10:12:25;;;;;;;8.57;3.28;;;14.90;99.90;;;;;;5014199;28;20029;-75
2022/10/29 10:15:03;;;;;;;6.13;2.67;;;14.90;99.90;;;;;;5031592;28;20060;-74
2022/10/29 10:18:00;;;;;;;8.32;2.83;;;15.00;99.90;;;;;;5028354;28;20049;-74
2022/10/29 10:20:32;;;;;;;7.10;3.22;;;15.00;99.90;;;;;;5029695;28;21366;-74
2022/10/29 10:22:58;;;;;;;7.80;3.45;;;15.00;99.90;;;;;;5034934;28;20115;-74
2022/10/29 10:25:38;;;;;;;9.20;3.08;;;15.00;99.90;;;;;;5014011;28;20697;-74
2022/10/29 10:28:16;;;;;;;7.03;3.00;;;15.10;99.90;;;;;;5033181;28;20076;-71
2022/10/29 10:30:42;;;;;;;7.05;2.70;;;15.10;99.90;;;;;;5018019;28;20416;-71
2022/10/29 10:33:24;;;;;;;6.55;3.35;;;15.10;99.90;;;;;;5033558;28;20072;-74
2022/10/29 10:35:51;;;;;;;7.55;2.83;;;15.10;99.90;;;;;;5033572;28;20068;-73
2022/10/29 10:38:18;;;;;;;9.20;3.33;;;15.20;99.90;;;;;;5035923;28;20045;-73
2022/10/29 10:40:58;;;;;;;6.38;3.08;;;15.20;99.90;;;;;;5030620;28;21045;-73
2022/10/29 10:43:25;;;;;;;9.82;2.50;;;15.30;99.90;;;;;;5032006;28;20462;-73
2022/10/29 10:45:58;;;;;;;5.38;2.50;;;15.30;99.90;;;;;;5030653;28;20033;-73
2022/10/29 10:48:26;;;;;;;5.20;2.22;;;15.30;99.90;;;;;;5031171;28;20147;-73
2022/10/29 10:51:16;;;;;;;4.82;2.42;;;15.40;99.90;;;;;;5032961;28;20261;-73
2022/10/29 10:53:42;;;;;;;7.25;2.42;;;15.40;99.90;;;;;;5031888;28;20447;-73
2022/10/29 10:56:17;;;;;;;8.82;3.78;;;15.40;99.90;;;;;;5031696;28;20047;-71
2022/10/29 10:58:48;;;;;;;6.82;3.55;;;15.40;99.90;;;;;;5044370;28;20052;-71
2022/10/29 11:01:35;;;;;;;9.23;3.38;;;15.50;99.90;;;;;;5031534;28;20187;-71
2022/10/29 11:04:36;;;;;;;6.90;3.25;;;15.50;99.90;;;;;;5033527;28;20043;-71
2022/10/29 11:07:08;;;;;;;7.93;2.80;;;15.50;99.90;;;;;;4989999;28;20130;-71
2022/10/29 11:09:42;;;;;;;10.13;3.70;;;15.60;99.90;;;;;;5029332;28;20041;-71
2022/10/29 11:12:23;;;;;;;4.55;2.85;;;15.60;99.90;;;;;;5030731;28;20098;-71
2022/10/29 11:15:13;;;;;;;7.38;3.17;;;15.60;99.90;;;;;;5013584;28;20053;-71
2022/10/29 11:18:08;;;;;;;7.82;3.17;;;15.70;99.90;;;;;;5005169;28;20053;-71
2022/10/29 11:20:36;;;;;;;5.43;2.90;;;15.70;99.90;;;;;;5033222;28;20623;-71
2022/10/29 11:23:20;;;;;;;5.00;2.67;;;15.70;99.90;;;;;;5032722;28;20041;-71
2022/10/29 11:26:18;;;;;;;10.95;3.10;;;15.80;99.90;;;;;;5034465;28;20036;-71
2022/10/29 11:28:54;;;;;;;6.75;2.88;;;15.80;99.90;;;;;;5016530;28;20126;-71
2022/10/29 11:31:35;;;;;;;6.10;3.05;;;15.90;99.90;;;;;;5018501;28;20044;-71
2022/10/29 11:34:20;;;;;;;7.28;2.58;;;15.90;99.90;;;;;;5018236;28;20490;-71
2022/10/29 11:36:59;;;;;;;7.32;3.30;;;16.00;99.90;;;;;;5032191;28;20040;-71
2022/10/29 11:39:32;;;;;;;5.53;3.20;;;16.00;99.90;;;;;;5033553;28;20126;-71
2022/10/29 11:41:59;;;;;;;8.98;3.40;;;16.00;99.90;;;;;;5031069;28;20071;-71
2022/10/29 11:44:27;;;;;;;5.55;3.03;;;16.10;99.90;;;;;;5016260;28;20138;-71
2022/10/29 11:46:58;;;;;;;9.65;4.00;;;16.00;99.90;;;;;;5031456;28;20036;-71
2022/10/29 11:49:52;;;;;;;7.28;3.30;;;16.10;99.90;;;;;;5031672;28;20486;-71
2022/10/29 11:52:53;;;;;;;7.65;3.25;;;16.10;99.90;;;;;;5032971;28;20485;-71
2022/10/29 11:55:50;;;;;;;7.53;3.38;;;16.20;99.90;;;;;;5021992;28;20041;-70
2022/10/29 11:58:32;;;;;;;6.15;2.95;;;16.30;99.90;;;;;;5034199;28;20044;-70
2022/10/29 12:01:27;;;;;;;7.63;3.40;;;16.30;99.90;;;;;;5049766;28;20045;-71
2022/10/29 12:04:07;;;;;;;11.65;4.03;;;16.40;99.90;;;;;;5032199;28;20047;-71
2022/10/29 12:07:07;;;;;;;8.23;3.33;;;16.40;99.90;;;;;;5047840;28;20094;-71
2022/10/29 12:10:07;;;;;;;8.75;3.50;;;16.40;99.90;;;;;;5030680;28;20060;-71
2022/10/29 12:12:38;;;;;;;9.43;2.95;;;16.50;99.90;;;;;;5028348;28;20048;-71
2022/10/29 12:15:23;;;;;;;8.63;3.45;;;16.50;99.90;;;;;;5031223;28;20064;-70
2022/10/29 12:18:02;;;;;;;6.70;3.20;;;16.50;99.90;;;;;;5032002;28;20052;-70
2022/10/29 12:20:43;;;;;;;7.88;3.40;;;16.60;99.90;;;;;;5033239;28;20041;-70
2022/10/29 12:23:24;;;;;;;5.70;2.90;;;16.60;99.90;;;;;;5031316;28;20058;-70
2022/10/29 12:26:11;;;;;;;5.40;3.40;;;16.70;99.90;;;;;;5031628;28;20112;-70
2022/10/29 12:28:52;;;;;;;4.60;2.75;;;16.70;99.90;;;;;;5032674;28;20625;-71
2022/10/29 12:31:44;;;;;;;6.18;3.00;;;16.70;99.90;;;;;;5033079;28;20146;-71
2022/10/29 12:34:22;;;;;;;5.10;3.15;;;16.80;99.90;;;;;;5016380;28;20052;-71
2022/10/29 12:37:01;;;;;;;6.93;3.58;;;16.80;99.90;;;;;;5028817;28;20079;-71
2022/10/29 12:39:35;;;;;;;5.85;2.35;;;16.80;99.90;;;;;;5032135;28;20049;-71
2022/10/29 12:42:06;;;;;;;6.78;2.90;;;16.90;99.90;;;;;;5033870;28;20041;-71
2022/10/29 12:45:20;;;;;;;6.82;2.25;;;16.90;99.90;;;;;;5032829;28;20457;-70
2022/10/29 12:48:11;;;;;;;6.80;2.70;;;16.90;99.90;;;;;;5019261;28;20055;-70
2022/10/29 12:50:48;;;;;;;6.50;3.38;;;16.90;99.90;;;;;;5035381;28;20048;-70
2022/10/29 12:53:17;;;;;;;9.27;3.35;;;16.90;99.90;;;;;;5032679;28;20482;-72
2022/10/29 12:55:45;;;;;;;7.25;2.90;;;16.90;99.90;;;;;;5021072;28;20040;-71
2022/10/29 12:58:42;;;;;;;10.00;3.25;;;16.90;99.90;;;;;;5035776;28;20056;-71
2022/10/29 13:01:28;;;;;;;9.30;2.90;;;16.90;99.90;;;;;;5031866;28;20518;-71
2022/10/29 13:03:53;;;;;;;;;;;16.90;99.90;;;;;;5026020;28;20042;-71
2022/10/29 13:06:38;;;;;;;;;;;16.90;99.90;;;;;;5018624;28;19920;-71
2022/10/29 13:09:20;;;;;;;9.13;3.53;;;16.90;99.90;;;;;;5033704;28;20341;-71
2022/10/29 13:11:49;;;;;;;9.48;3.53;;;16.90;99.90;;;;;;5050124;28;20060;-71